sensor_id;sensor_type;location;lat;lon;timestamp;P1;durP1;ratioP1;P2;durP2;ratioP2
58414;SDS011;44210;42.706;18.344;2023-03-01T00:02:03;28.45;;;5.75;;
58414;SDS011;44210;42.706;18.344;2023-03-01T00:04:29;30.70;;;6.40;;
58414;SDS011;44210;42.706;18.344;2023-03-01T00:06:56;19.65;;;5.85;;
58414;SDS011;44210;42.706;18.344;2023-03-01T00:09:22;30.13;;;6.00;;
58414;SDS011;44210;42.706;18.344;2023-03-01T00:11:48;22.65;;;6.72;;
58414;SDS011;44210;42.706;18.344;2023-03-01T00:14:15;32.13;;;6.78;;
58414;SDS011;44210;42.706;18.344;2023-03-01T00:16:43;28.38;;;6.00;;
58414;SDS011;44210;42.706;18.344;2023-03-01T00:19:10;32.50;;;5.90;;
58414;SDS011;44210;42.706;18.344;2023-03-01T00:21:37;31.23;;;5.63;;
58414;SDS011;44210;42.706;18.344;2023-03-01T00:24:03;23.58;;;6.28;;
58414;SDS011;44210;42.706;18.344;2023-03-01T00:26:29;27.30;;;5.75;;
58414;SDS011;44210;42.706;18.344;2023-03-01T00:28:56;28.33;;;6.57;;
58414;SDS011;44210;42.706;18.344;2023-03-01T00:31:23;20.00;;;5.65;;
58414;SDS011;44210;42.706;18.344;2023-03-01T00:33:52;28.00;;;6.03;;
58414;SDS011;44210;42.706;18.344;2023-03-01T00:36:21;31.40;;;6.15;;
58414;SDS011;44210;42.706;18.344;2023-03-01T00:38:48;31.25;;;6.40;;
58414;SDS011;44210;42.706;18.344;2023-03-01T00:41:15;27.80;;;5.82;;
58414;SDS011;44210;42.706;18.344;2023-03-01T00:43:42;35.65;;;6.88;;
58414;SDS011;44210;42.706;18.344;2023-03-01T00:46:09;32.03;;;6.50;;
58414;SDS011;44210;42.706;18.344;2023-03-01T00:48:36;28.85;;;6.13;;
58414;SDS011;44210;42.706;18.344;2023-03-01T00:53:31;33.30;;;5.68;;
58414;SDS011;44210;42.706;18.344;2023-03-01T00:55:57;28.77;;;5.97;;
58414;SDS011;44210;42.706;18.344;2023-03-01T00:58:23;32.88;;;6.22;;
58414;SDS011;44210;42.706;18.344;2023-03-01T01:00:49;32.33;;;5.80;;
58414;SDS011;44210;42.706;18.344;2023-03-01T01:03:17;31.38;;;6.40;;
58414;SDS011;44210;42.706;18.344;2023-03-01T01:05:43;34.58;;;6.88;;
58414;SDS011;44210;42.706;18.344;2023-03-01T01:08:09;20.70;;;5.38;;
58414;SDS011;44210;42.706;18.344;2023-03-01T01:10:35;26.88;;;5.03;;
58414;SDS011;44210;42.706;18.344;2023-03-01T01:13:01;38.88;;;6.55;;
58414;SDS011;44210;42.706;18.344;2023-03-01T01:15:27;28.35;;;5.75;;
58414;SDS011;44210;42.706;18.344;2023-03-01T01:17:53;20.00;;;5.57;;
58414;SDS011;44210;42.706;18.344;2023-03-01T01:20:19;25.42;;;6.03;;
58414;SDS011;44210;42.706;18.344;2023-03-01T01:22:45;24.20;;;5.68;;
58414;SDS011;44210;42.706;18.344;2023-03-01T01:25:12;28.13;;;5.13;;
58414;SDS011;44210;42.706;18.344;2023-03-01T01:27:38;33.30;;;5.60;;
58414;SDS011;44210;42.706;18.344;2023-03-01T01:30:04;23.02;;;5.57;;
58414;SDS011;44210;42.706;18.344;2023-03-01T01:32:30;21.48;;;4.80;;
58414;SDS011;44210;42.706;18.344;2023-03-01T01:34:56;22.20;;;5.18;;
58414;SDS011;44210;42.706;18.344;2023-03-01T01:37:22;28.65;;;6.07;;
58414;SDS011;44210;42.706;18.344;2023-03-01T01:39:56;31.40;;;5.93;;
58414;SDS011;44210;42.706;18.344;2023-03-01T01:42:22;34.65;;;6.07;;
58414;SDS011;44210;42.706;18.344;2023-03-01T01:44:48;24.60;;;6.05;;
58414;SDS011;44210;42.706;18.344;2023-03-01T01:47:18;29.80;;;5.45;;
58414;SDS011;44210;42.706;18.344;2023-03-01T01:49:46;26.08;;;6.05;;
58414;SDS011;44210;42.706;18.344;2023-03-01T01:54:40;27.60;;;6.07;;
58414;SDS011;44210;42.706;18.344;2023-03-01T01:57:09;24.70;;;6.25;;
58414;SDS011;44210;42.706;18.344;2023-03-01T01:59:36;31.77;;;6.65;;
58414;SDS011;44210;42.706;18.344;2023-03-01T02:02:03;22.92;;;5.45;;
58414;SDS011;44210;42.706;18.344;2023-03-01T02:04:30;24.67;;;5.97;;
58414;SDS011;44210;42.706;18.344;2023-03-01T02:07:13;29.25;;;5.95;;
58414;SDS011;44210;42.706;18.344;2023-03-01T02:09:40;23.25;;;5.07;;
58414;SDS011;44210;42.706;18.344;2023-03-01T02:12:06;25.25;;;5.20;;
58414;SDS011;44210;42.706;18.344;2023-03-01T02:14:32;31.48;;;6.03;;
58414;SDS011;44210;42.706;18.344;2023-03-01T02:16:58;29.42;;;6.30;;
58414;SDS011;44210;42.706;18.344;2023-03-01T02:19:35;23.90;;;4.97;;
58414;SDS011;44210;42.706;18.344;2023-03-01T02:22:08;21.30;;;4.63;;
58414;SDS011;44210;42.706;18.344;2023-03-01T02:27:15;19.88;;;5.13;;
58414;SDS011;44210;42.706;18.344;2023-03-01T02:29:42;25.98;;;4.88;;
58414;SDS011;44210;42.706;18.344;2023-03-01T02:32:09;23.90;;;5.22;;
58414;SDS011;44210;42.706;18.344;2023-03-01T02:34:36;24.25;;;5.35;;
58414;SDS011;44210;42.706;18.344;2023-03-01T02:37:03;21.70;;;4.53;;
58414;SDS011;44210;42.706;18.344;2023-03-01T02:39:31;28.67;;;5.70;;
58414;SDS011;44210;42.706;18.344;2023-03-01T02:41:58;25.45;;;4.60;;
58414;SDS011;44210;42.706;18.344;2023-03-01T02:44:25;29.98;;;4.50;;
58414;SDS011;44210;42.706;18.344;2023-03-01T02:46:52;24.10;;;5.70;;
58414;SDS011;44210;42.706;18.344;2023-03-01T02:54:22;31.75;;;5.78;;
58414;SDS011;44210;42.706;18.344;2023-03-01T02:56:50;35.15;;;5.05;;
58414;SDS011;44210;42.706;18.344;2023-03-01T02:59:17;21.30;;;4.00;;
58414;SDS011;44210;42.706;18.344;2023-03-01T03:01:43;26.33;;;5.28;;
58414;SDS011;44210;42.706;18.344;2023-03-01T03:04:10;22.15;;;4.35;;
58414;SDS011;44210;42.706;18.344;2023-03-01T03:06:37;29.10;;;4.25;;
58414;SDS011;44210;42.706;18.344;2023-03-01T03:09:04;20.20;;;4.72;;
58414;SDS011;44210;42.706;18.344;2023-03-01T03:11:30;29.08;;;5.18;;
58414;SDS011;44210;42.706;18.344;2023-03-01T03:13:57;26.25;;;4.10;;
58414;SDS011;44210;42.706;18.344;2023-03-01T03:16:23;23.13;;;4.90;;
58414;SDS011;44210;42.706;18.344;2023-03-01T03:18:49;23.90;;;4.45;;
58414;SDS011;44210;42.706;18.344;2023-03-01T03:21:16;19.55;;;5.00;;
58414;SDS011;44210;42.706;18.344;2023-03-01T03:23:42;40.83;;;6.32;;
58414;SDS011;44210;42.706;18.344;2023-03-01T03:26:08;24.05;;;4.78;;
58414;SDS011;44210;42.706;18.344;2023-03-01T03:28:38;13.75;;;3.97;;
58414;SDS011;44210;42.706;18.344;2023-03-01T03:31:05;21.02;;;4.88;;
58414;SDS011;44210;42.706;18.344;2023-03-01T03:33:32;24.10;;;4.40;;
58414;SDS011;44210;42.706;18.344;2023-03-01T03:35:58;24.38;;;5.03;;
58414;SDS011;44210;42.706;18.344;2023-03-01T03:38:24;29.63;;;4.45;;
58414;SDS011;44210;42.706;18.344;2023-03-01T03:40:51;23.25;;;4.55;;
58414;SDS011;44210;42.706;18.344;2023-03-01T03:43:19;32.72;;;5.80;;
58414;SDS011;44210;42.706;18.344;2023-03-01T03:45:46;26.95;;;4.20;;
58414;SDS011;44210;42.706;18.344;2023-03-01T03:48:12;17.15;;;4.18;;
58414;SDS011;44210;42.706;18.344;2023-03-01T03:50:38;22.00;;;4.22;;
58414;SDS011;44210;42.706;18.344;2023-03-01T03:53:06;18.40;;;4.43;;
58414;SDS011;44210;42.706;18.344;2023-03-01T03:55:34;19.00;;;4.35;;
58414;SDS011;44210;42.706;18.344;2023-03-01T03:58:00;18.92;;;4.20;;
58414;SDS011;44210;42.706;18.344;2023-03-01T04:00:31;29.25;;;5.10;;
58414;SDS011;44210;42.706;18.344;2023-03-01T04:02:58;19.20;;;5.03;;
58414;SDS011;44210;42.706;18.344;2023-03-01T04:05:24;24.88;;;5.13;;
58414;SDS011;44210;42.706;18.344;2023-03-01T04:07:51;21.13;;;4.72;;
58414;SDS011;44210;42.706;18.344;2023-03-01T04:10:26;22.00;;;4.07;;
58414;SDS011;44210;42.706;18.344;2023-03-01T04:12:53;28.42;;;4.50;;
58414;SDS011;44210;42.706;18.344;2023-03-01T04:15:21;21.83;;;4.35;;
58414;SDS011;44210;42.706;18.344;2023-03-01T04:17:49;27.02;;;4.38;;
58414;SDS011;44210;42.706;18.344;2023-03-01T04:20:16;18.63;;;4.80;;
58414;SDS011;44210;42.706;18.344;2023-03-01T04:22:43;22.42;;;4.80;;
58414;SDS011;44210;42.706;18.344;2023-03-01T04:25:12;18.38;;;4.30;;
58414;SDS011;44210;42.706;18.344;2023-03-01T04:27:39;18.58;;;4.78;;
58414;SDS011;44210;42.706;18.344;2023-03-01T04:30:05;15.75;;;4.20;;
58414;SDS011;44210;42.706;18.344;2023-03-01T04:32:32;23.15;;;4.68;;
58414;SDS011;44210;42.706;18.344;2023-03-01T04:34:58;30.13;;;4.75;;
58414;SDS011;44210;42.706;18.344;2023-03-01T04:37:24;25.30;;;5.32;;
58414;SDS011;44210;42.706;18.344;2023-03-01T04:39:50;18.63;;;4.45;;
58414;SDS011;44210;42.706;18.344;2023-03-01T04:42:16;24.40;;;6.18;;
58414;SDS011;44210;42.706;18.344;2023-03-01T04:44:43;19.85;;;4.32;;
58414;SDS011;44210;42.706;18.344;2023-03-01T04:47:09;21.55;;;5.15;;
58414;SDS011;44210;42.706;18.344;2023-03-01T04:49:35;23.02;;;5.28;;
58414;SDS011;44210;42.706;18.344;2023-03-01T04:52:01;19.90;;;5.28;;
58414;SDS011;44210;42.706;18.344;2023-03-01T04:54:28;21.52;;;4.90;;
58414;SDS011;44210;42.706;18.344;2023-03-01T04:56:55;16.55;;;4.70;;
58414;SDS011;44210;42.706;18.344;2023-03-01T04:59:21;22.30;;;4.50;;
58414;SDS011;44210;42.706;18.344;2023-03-01T05:01:48;25.55;;;4.93;;
58414;SDS011;44210;42.706;18.344;2023-03-01T05:04:14;14.73;;;4.47;;
58414;SDS011;44210;42.706;18.344;2023-03-01T05:06:40;25.58;;;4.32;;
58414;SDS011;44210;42.706;18.344;2023-03-01T05:09:06;19.67;;;4.68;;
58414;SDS011;44210;42.706;18.344;2023-03-01T05:11:32;22.80;;;4.95;;
58414;SDS011;44210;42.706;18.344;2023-03-01T05:14:01;20.85;;;5.70;;
58414;SDS011;44210;42.706;18.344;2023-03-01T05:16:27;18.33;;;5.30;;
58414;SDS011;44210;42.706;18.344;2023-03-01T05:18:55;24.85;;;6.95;;
58414;SDS011;44210;42.706;18.344;2023-03-01T05:21:21;32.53;;;6.30;;
58414;SDS011;44210;42.706;18.344;2023-03-01T05:23:47;17.80;;;4.70;;
58414;SDS011;44210;42.706;18.344;2023-03-01T05:26:14;16.50;;;4.97;;
58414;SDS011;44210;42.706;18.344;2023-03-01T05:28:40;22.08;;;4.32;;
58414;SDS011;44210;42.706;18.344;2023-03-01T05:31:07;23.27;;;4.82;;
58414;SDS011;44210;42.706;18.344;2023-03-01T05:33:35;21.58;;;5.57;;
58414;SDS011;44210;42.706;18.344;2023-03-01T05:36:01;19.92;;;5.05;;
58414;SDS011;44210;42.706;18.344;2023-03-01T05:38:28;24.48;;;4.97;;
58414;SDS011;44210;42.706;18.344;2023-03-01T05:40:54;23.70;;;5.13;;
58414;SDS011;44210;42.706;18.344;2023-03-01T05:43:20;29.75;;;5.60;;
58414;SDS011;44210;42.706;18.344;2023-03-01T05:45:46;26.00;;;6.80;;
58414;SDS011;44210;42.706;18.344;2023-03-01T05:48:12;25.67;;;6.40;;
58414;SDS011;44210;42.706;18.344;2023-03-01T05:50:42;22.98;;;5.43;;
58414;SDS011;44210;42.706;18.344;2023-03-01T05:53:10;24.70;;;6.63;;
58414;SDS011;44210;42.706;18.344;2023-03-01T05:55:36;20.40;;;4.78;;
58414;SDS011;44210;42.706;18.344;2023-03-01T05:58:04;25.55;;;5.43;;
58414;SDS011;44210;42.706;18.344;2023-03-01T06:00:30;24.45;;;5.40;;
58414;SDS011;44210;42.706;18.344;2023-03-01T06:02:57;24.00;;;5.47;;
58414;SDS011;44210;42.706;18.344;2023-03-01T06:05:23;20.27;;;5.07;;
58414;SDS011;44210;42.706;18.344;2023-03-01T06:07:49;24.60;;;6.35;;
58414;SDS011;44210;42.706;18.344;2023-03-01T06:10:16;19.50;;;5.32;;
58414;SDS011;44210;42.706;18.344;2023-03-01T06:12:42;23.05;;;5.57;;
58414;SDS011;44210;42.706;18.344;2023-03-01T06:15:09;14.02;;;5.63;;
58414;SDS011;44210;42.706;18.344;2023-03-01T06:17:36;25.20;;;5.18;;
58414;SDS011;44210;42.706;18.344;2023-03-01T06:20:24;20.83;;;4.72;;
58414;SDS011;44210;42.706;18.344;2023-03-01T06:22:49;18.65;;;4.85;;
58414;SDS011;44210;42.706;18.344;2023-03-01T06:25:16;23.70;;;5.20;;
58414;SDS011;44210;42.706;18.344;2023-03-01T06:27:42;19.27;;;4.38;;
58414;SDS011;44210;42.706;18.344;2023-03-01T06:30:09;17.05;;;4.47;;
58414;SDS011;44210;42.706;18.344;2023-03-01T06:32:35;17.63;;;5.28;;
58414;SDS011;44210;42.706;18.344;2023-03-01T06:35:02;17.30;;;5.55;;
58414;SDS011;44210;42.706;18.344;2023-03-01T06:37:28;14.75;;;4.88;;
58414;SDS011;44210;42.706;18.344;2023-03-01T06:39:54;27.95;;;6.57;;
58414;SDS011;44210;42.706;18.344;2023-03-01T06:42:20;14.15;;;4.28;;
58414;SDS011;44210;42.706;18.344;2023-03-01T06:44:46;19.83;;;5.40;;
58414;SDS011;44210;42.706;18.344;2023-03-01T06:47:12;22.00;;;5.63;;
58414;SDS011;44210;42.706;18.344;2023-03-01T06:49:38;14.68;;;5.25;;
58414;SDS011;44210;42.706;18.344;2023-03-01T06:52:04;19.05;;;5.85;;
58414;SDS011;44210;42.706;18.344;2023-03-01T06:54:30;24.80;;;6.32;;
58414;SDS011;44210;42.706;18.344;2023-03-01T06:56:56;21.88;;;5.57;;
58414;SDS011;44210;42.706;18.344;2023-03-01T06:59:22;21.88;;;7.35;;
58414;SDS011;44210;42.706;18.344;2023-03-01T07:01:49;26.65;;;7.35;;
58414;SDS011;44210;42.706;18.344;2023-03-01T07:04:15;17.02;;;6.68;;
58414;SDS011;44210;42.706;18.344;2023-03-01T07:06:41;18.73;;;6.07;;
58414;SDS011;44210;42.706;18.344;2023-03-01T07:09:07;16.25;;;5.30;;
58414;SDS011;44210;42.706;18.344;2023-03-01T07:11:33;15.20;;;4.95;;
58414;SDS011;44210;42.706;18.344;2023-03-01T07:13:59;20.42;;;5.25;;
58414;SDS011;44210;42.706;18.344;2023-03-01T07:16:25;19.55;;;5.60;;
58414;SDS011;44210;42.706;18.344;2023-03-01T07:18:51;21.98;;;5.30;;
58414;SDS011;44210;42.706;18.344;2023-03-01T07:21:17;16.40;;;4.90;;
58414;SDS011;44210;42.706;18.344;2023-03-01T07:23:43;22.83;;;4.88;;
58414;SDS011;44210;42.706;18.344;2023-03-01T07:26:09;21.42;;;5.70;;
58414;SDS011;44210;42.706;18.344;2023-03-01T07:28:35;19.33;;;7.85;;
58414;SDS011;44210;42.706;18.344;2023-03-01T07:31:03;24.02;;;12.55;;
58414;SDS011;44210;42.706;18.344;2023-03-01T07:33:30;30.15;;;11.32;;
58414;SDS011;44210;42.706;18.344;2023-03-01T07:35:59;21.85;;;11.02;;
58414;SDS011;44210;42.706;18.344;2023-03-01T07:38:25;28.23;;;13.40;;
58414;SDS011;44210;42.706;18.344;2023-03-01T07:40:52;18.48;;;5.97;;
58414;SDS011;44210;42.706;18.344;2023-03-01T07:43:18;17.30;;;4.88;;
58414;SDS011;44210;42.706;18.344;2023-03-01T07:45:45;20.95;;;8.77;;
58414;SDS011;44210;42.706;18.344;2023-03-01T07:48:11;17.63;;;8.50;;
58414;SDS011;44210;42.706;18.344;2023-03-01T07:50:37;23.58;;;8.38;;
58414;SDS011;44210;42.706;18.344;2023-03-01T07:53:03;21.83;;;10.32;;
58414;SDS011;44210;42.706;18.344;2023-03-01T07:55:29;23.52;;;11.10;;
58414;SDS011;44210;42.706;18.344;2023-03-01T07:57:55;23.00;;;12.00;;
58414;SDS011;44210;42.706;18.344;2023-03-01T08:00:21;24.98;;;15.02;;
58414;SDS011;44210;42.706;18.344;2023-03-01T08:02:47;23.38;;;14.27;;
58414;SDS011;44210;42.706;18.344;2023-03-01T08:05:13;31.92;;;12.40;;
58414;SDS011;44210;42.706;18.344;2023-03-01T08:07:39;28.48;;;11.45;;
58414;SDS011;44210;42.706;18.344;2023-03-01T08:10:06;39.97;;;19.13;;
58414;SDS011;44210;42.706;18.344;2023-03-01T08:12:32;34.53;;;17.10;;
58414;SDS011;44210;42.706;18.344;2023-03-01T08:14:58;29.10;;;15.75;;
58414;SDS011;44210;42.706;18.344;2023-03-01T08:17:24;35.33;;;15.50;;
58414;SDS011;44210;42.706;18.344;2023-03-01T08:19:50;51.38;;;29.75;;
58414;SDS011;44210;42.706;18.344;2023-03-01T08:22:16;60.38;;;35.17;;
58414;SDS011;44210;42.706;18.344;2023-03-01T08:24:42;69.28;;;41.47;;
58414;SDS011;44210;42.706;18.344;2023-03-01T08:27:09;64.63;;;44.55;;
58414;SDS011;44210;42.706;18.344;2023-03-01T08:29:35;54.05;;;30.15;;
58414;SDS011;44210;42.706;18.344;2023-03-01T08:32:01;55.13;;;27.20;;
58414;SDS011;44210;42.706;18.344;2023-03-01T08:34:27;43.67;;;18.77;;
58414;SDS011;44210;42.706;18.344;2023-03-01T08:36:53;32.75;;;13.30;;
58414;SDS011;44210;42.706;18.344;2023-03-01T08:39:19;37.30;;;16.73;;
58414;SDS011;44210;42.706;18.344;2023-03-01T08:41:46;31.00;;;13.50;;
58414;SDS011;44210;42.706;18.344;2023-03-01T08:44:13;19.83;;;7.65;;
58414;SDS011;44210;42.706;18.344;2023-03-01T08:46:41;29.30;;;9.07;;
58414;SDS011;44210;42.706;18.344;2023-03-01T08:49:08;19.60;;;6.68;;
58414;SDS011;44210;42.706;18.344;2023-03-01T08:51:35;23.52;;;5.72;;
58414;SDS011;44210;42.706;18.344;2023-03-01T08:54:04;27.58;;;6.40;;
58414;SDS011;44210;42.706;18.344;2023-03-01T08:56:30;19.38;;;6.30;;
58414;SDS011;44210;42.706;18.344;2023-03-01T08:58:57;23.17;;;6.65;;
58414;SDS011;44210;42.706;18.344;2023-03-01T09:01:23;15.45;;;5.38;;
58414;SDS011;44210;42.706;18.344;2023-03-01T09:03:49;19.75;;;6.80;;
58414;SDS011;44210;42.706;18.344;2023-03-01T09:06:15;19.52;;;5.95;;
58414;SDS011;44210;42.706;18.344;2023-03-01T09:08:42;12.52;;;4.93;;
58414;SDS011;44210;42.706;18.344;2023-03-01T09:11:10;18.48;;;5.25;;
58414;SDS011;44210;42.706;18.344;2023-03-01T09:13:36;24.77;;;6.07;;
58414;SDS011;44210;42.706;18.344;2023-03-01T09:16:03;18.90;;;5.25;;
58414;SDS011;44210;42.706;18.344;2023-03-01T09:18:30;18.17;;;5.53;;
58414;SDS011;44210;42.706;18.344;2023-03-01T09:21:03;12.48;;;5.22;;
58414;SDS011;44210;42.706;18.344;2023-03-01T09:23:32;20.90;;;5.63;;
58414;SDS011;44210;42.706;18.344;2023-03-01T09:25:58;15.23;;;5.18;;
58414;SDS011;44210;42.706;18.344;2023-03-01T09:28:24;18.23;;;5.15;;
58414;SDS011;44210;42.706;18.344;2023-03-01T09:30:50;16.98;;;5.50;;
58414;SDS011;44210;42.706;18.344;2023-03-01T09:33:16;16.20;;;5.85;;
58414;SDS011;44210;42.706;18.344;2023-03-01T09:35:42;21.67;;;6.57;;
58414;SDS011;44210;42.706;18.344;2023-03-01T09:38:12;16.95;;;5.57;;
58414;SDS011;44210;42.706;18.344;2023-03-01T09:40:41;14.18;;;5.75;;
58414;SDS011;44210;42.706;18.344;2023-03-01T09:43:15;19.60;;;6.00;;
58414;SDS011;44210;42.706;18.344;2023-03-01T09:45:43;13.45;;;6.07;;
58414;SDS011;44210;42.706;18.344;2023-03-01T09:48:12;23.27;;;9.65;;
58414;SDS011;44210;42.706;18.344;2023-03-01T09:50:41;13.60;;;6.15;;
58414;SDS011;44210;42.706;18.344;2023-03-01T09:53:22;24.17;;;6.25;;
58414;SDS011;44210;42.706;18.344;2023-03-01T09:55:55;23.40;;;7.07;;
58414;SDS011;44210;42.706;18.344;2023-03-01T10:01:30;19.35;;;6.35;;
58414;SDS011;44210;42.706;18.344;2023-03-01T10:06:34;19.70;;;5.38;;
58414;SDS011;44210;42.706;18.344;2023-03-01T10:09:05;14.77;;;5.75;;
58414;SDS011;44210;42.706;18.344;2023-03-01T10:11:37;18.55;;;6.35;;
58414;SDS011;44210;42.706;18.344;2023-03-01T10:14:05;13.63;;;5.97;;
58414;SDS011;44210;42.706;18.344;2023-03-01T10:19:30;20.00;;;5.38;;
58414;SDS011;44210;42.706;18.344;2023-03-01T10:21:57;19.65;;;6.05;;
58414;SDS011;44210;42.706;18.344;2023-03-01T10:24:26;24.90;;;7.07;;
58414;SDS011;44210;42.706;18.344;2023-03-01T10:26:54;16.08;;;6.20;;
58414;SDS011;44210;42.706;18.344;2023-03-01T10:29:31;14.27;;;6.65;;
58414;SDS011;44210;42.706;18.344;2023-03-01T10:32:00;24.58;;;10.63;;
58414;SDS011;44210;42.706;18.344;2023-03-01T10:34:28;19.65;;;9.38;;
58414;SDS011;44210;42.706;18.344;2023-03-01T10:36:59;13.55;;;7.28;;
58414;SDS011;44210;42.706;18.344;2023-03-01T10:44:35;22.52;;;5.70;;
58414;SDS011;44210;42.706;18.344;2023-03-01T10:47:02;12.57;;;4.53;;
58414;SDS011;44210;42.706;18.344;2023-03-01T10:49:29;16.85;;;6.40;;
58414;SDS011;44210;42.706;18.344;2023-03-01T10:51:55;13.50;;;5.80;;
58414;SDS011;44210;42.706;18.344;2023-03-01T10:54:31;19.50;;;5.65;;
58414;SDS011;44210;42.706;18.344;2023-03-01T10:57:02;26.83;;;8.15;;
58414;SDS011;44210;42.706;18.344;2023-03-01T10:59:30;23.65;;;13.18;;
58414;SDS011;44210;42.706;18.344;2023-03-01T11:02:29;14.85;;;6.72;;
58414;SDS011;44210;42.706;18.344;2023-03-01T11:07:27;21.75;;;12.65;;
58414;SDS011;44210;42.706;18.344;2023-03-01T11:09:54;18.25;;;8.02;;
58414;SDS011;44210;42.706;18.344;2023-03-01T11:12:20;21.38;;;10.77;;
58414;SDS011;44210;42.706;18.344;2023-03-01T11:14:55;21.83;;;10.82;;
58414;SDS011;44210;42.706;18.344;2023-03-01T11:17:27;20.67;;;10.52;;
58414;SDS011;44210;42.706;18.344;2023-03-01T11:20:01;20.83;;;9.97;;
58414;SDS011;44210;42.706;18.344;2023-03-01T11:22:29;19.20;;;9.80;;
58414;SDS011;44210;42.706;18.344;2023-03-01T11:24:56;18.00;;;9.18;;
58414;SDS011;44210;42.706;18.344;2023-03-01T11:27:32;37.38;;;21.05;;
58414;SDS011;44210;42.706;18.344;2023-03-01T11:30:04;29.88;;;13.82;;
58414;SDS011;44210;42.706;18.344;2023-03-01T11:32:43;23.65;;;10.70;;
58414;SDS011;44210;42.706;18.344;2023-03-01T11:35:18;17.30;;;7.97;;
58414;SDS011;44210;42.706;18.344;2023-03-01T11:45:53;18.92;;;8.23;;
58414;SDS011;44210;42.706;18.344;2023-03-01T11:48:28;20.88;;;7.32;;
58414;SDS011;44210;42.706;18.344;2023-03-01T11:50:57;14.45;;;6.60;;
58414;SDS011;44210;42.706;18.344;2023-03-01T12:30:13;21.65;;;8.57;;
58414;SDS011;44210;42.706;18.344;2023-03-01T12:35:14;21.55;;;10.10;;
58414;SDS011;44210;42.706;18.344;2023-03-01T12:40:29;20.80;;;8.40;;
58414;SDS011;44210;42.706;18.344;2023-03-01T12:43:08;18.23;;;9.73;;
58414;SDS011;44210;42.706;18.344;2023-03-01T12:50:46;21.65;;;9.68;;
58414;SDS011;44210;42.706;18.344;2023-03-01T12:53:17;24.23;;;11.18;;
58414;SDS011;44210;42.706;18.344;2023-03-01T12:55:45;18.92;;;9.35;;
58414;SDS011;44210;42.706;18.344;2023-03-01T12:58:29;15.90;;;8.15;;
58414;SDS011;44210;42.706;18.344;2023-03-01T13:04:30;29.38;;;15.68;;
58414;SDS011;44210;42.706;18.344;2023-03-01T13:09:03;19.85;;;10.60;;
58414;SDS011;44210;42.706;18.344;2023-03-01T13:11:31;18.70;;;10.15;;
58414;SDS011;44210;42.706;18.344;2023-03-01T13:17:01;20.83;;;9.35;;
58414;SDS011;44210;42.706;18.344;2023-03-01T13:19:28;21.08;;;10.00;;
58414;SDS011;44210;42.706;18.344;2023-03-01T13:21:54;21.95;;;9.55;;
58414;SDS011;44210;42.706;18.344;2023-03-01T13:29:45;12.13;;;6.55;;
58414;SDS011;44210;42.706;18.344;2023-03-01T13:32:24;19.60;;;9.27;;
58414;SDS011;44210;42.706;18.344;2023-03-01T13:34:54;18.85;;;8.32;;
58414;SDS011;44210;42.706;18.344;2023-03-01T13:37:22;30.77;;;14.13;;
58414;SDS011;44210;42.706;18.344;2023-03-01T13:39:50;24.63;;;12.38;;
58414;SDS011;44210;42.706;18.344;2023-03-01T13:42:50;29.58;;;14.73;;
58414;SDS011;44210;42.706;18.344;2023-03-01T13:45:21;22.60;;;9.60;;
58414;SDS011;44210;42.706;18.344;2023-03-01T13:47:53;18.20;;;8.48;;
58414;SDS011;44210;42.706;18.344;2023-03-01T13:50:22;15.20;;;6.53;;
58414;SDS011;44210;42.706;18.344;2023-03-01T13:52:56;14.73;;;6.68;;
58414;SDS011;44210;42.706;18.344;2023-03-01T13:55:37;24.58;;;7.60;;
58414;SDS011;44210;42.706;18.344;2023-03-01T13:58:05;17.40;;;8.40;;
58414;SDS011;44210;42.706;18.344;2023-03-01T14:00:39;20.27;;;8.15;;
58414;SDS011;44210;42.706;18.344;2023-03-01T14:05:32;22.63;;;7.05;;
58414;SDS011;44210;42.706;18.344;2023-03-01T14:07:58;18.88;;;8.27;;
58414;SDS011;44210;42.706;18.344;2023-03-01T14:10:26;19.60;;;8.07;;
58414;SDS011;44210;42.706;18.344;2023-03-01T14:13:00;18.50;;;8.27;;
58414;SDS011;44210;42.706;18.344;2023-03-01T14:15:35;23.85;;;9.98;;
58414;SDS011;44210;42.706;18.344;2023-03-01T14:20:47;28.77;;;14.88;;
58414;SDS011;44210;42.706;18.344;2023-03-01T14:23:18;18.65;;;10.00;;
58414;SDS011;44210;42.706;18.344;2023-03-01T14:25:49;17.33;;;8.80;;
58414;SDS011;44210;42.706;18.344;2023-03-01T14:30:46;15.43;;;7.90;;
58414;SDS011;44210;42.706;18.344;2023-03-01T14:35:51;20.05;;;10.65;;
58414;SDS011;44210;42.706;18.344;2023-03-01T14:38:22;17.80;;;9.98;;
58414;SDS011;44210;42.706;18.344;2023-03-01T14:40:49;21.95;;;9.80;;
58414;SDS011;44210;42.706;18.344;2023-03-01T14:56:46;24.83;;;17.15;;
58414;SDS011;44210;42.706;18.344;2023-03-01T14:59:12;22.48;;;12.50;;
58414;SDS011;44210;42.706;18.344;2023-03-01T15:01:39;19.75;;;8.52;;
58414;SDS011;44210;42.706;18.344;2023-03-01T15:04:06;17.83;;;8.13;;
58414;SDS011;44210;42.706;18.344;2023-03-01T15:06:35;20.00;;;8.48;;
58414;SDS011;44210;42.706;18.344;2023-03-01T15:09:01;20.30;;;8.52;;
58414;SDS011;44210;42.706;18.344;2023-03-01T15:11:31;16.80;;;8.52;;
58414;SDS011;44210;42.706;18.344;2023-03-01T15:13:58;15.52;;;7.75;;
58414;SDS011;44210;42.706;18.344;2023-03-01T15:16:31;18.35;;;7.88;;
58414;SDS011;44210;42.706;18.344;2023-03-01T15:19:02;14.48;;;8.13;;
58414;SDS011;44210;42.706;18.344;2023-03-01T15:21:31;19.15;;;9.38;;
58414;SDS011;44210;42.706;18.344;2023-03-01T15:23:59;11.63;;;6.93;;
58414;SDS011;44210;42.706;18.344;2023-03-01T15:26:31;12.98;;;6.82;;
58414;SDS011;44210;42.706;18.344;2023-03-01T15:28:58;14.75;;;6.68;;
58414;SDS011;44210;42.706;18.344;2023-03-01T15:31:29;11.90;;;5.40;;
58414;SDS011;44210;42.706;18.344;2023-03-01T15:36:45;9.73;;;4.53;;
58414;SDS011;44210;42.706;18.344;2023-03-01T15:41:49;10.73;;;5.72;;
58414;SDS011;44210;42.706;18.344;2023-03-01T15:46:45;14.30;;;6.85;;
58414;SDS011;44210;42.706;18.344;2023-03-01T15:51:56;16.20;;;7.97;;
58414;SDS011;44210;42.706;18.344;2023-03-01T15:54:23;13.20;;;5.82;;
58414;SDS011;44210;42.706;18.344;2023-03-01T15:56:50;9.40;;;5.43;;
58414;SDS011;44210;42.706;18.344;2023-03-01T15:59:16;13.93;;;7.20;;
58414;SDS011;44210;42.706;18.344;2023-03-01T16:01:43;13.35;;;6.63;;
58414;SDS011;44210;42.706;18.344;2023-03-01T16:04:12;12.80;;;5.75;;
58414;SDS011;44210;42.706;18.344;2023-03-01T16:06:45;11.60;;;5.53;;
58414;SDS011;44210;42.706;18.344;2023-03-01T16:09:12;13.60;;;5.90;;
58414;SDS011;44210;42.706;18.344;2023-03-01T16:11:38;12.32;;;5.20;;
58414;SDS011;44210;42.706;18.344;2023-03-01T16:14:05;14.73;;;6.47;;
58414;SDS011;44210;42.706;18.344;2023-03-01T16:16:31;13.18;;;6.07;;
58414;SDS011;44210;42.706;18.344;2023-03-01T16:18:57;17.23;;;5.82;;
58414;SDS011;44210;42.706;18.344;2023-03-01T16:21:24;14.50;;;6.72;;
58414;SDS011;44210;42.706;18.344;2023-03-01T16:23:50;13.27;;;7.85;;
58414;SDS011;44210;42.706;18.344;2023-03-01T16:26:17;10.48;;;5.97;;
58414;SDS011;44210;42.706;18.344;2023-03-01T16:28:43;19.33;;;7.28;;
58414;SDS011;44210;42.706;18.344;2023-03-01T16:31:10;12.02;;;5.82;;
58414;SDS011;44210;42.706;18.344;2023-03-01T16:33:36;12.88;;;6.07;;
58414;SDS011;44210;42.706;18.344;2023-03-01T16:36:09;11.07;;;5.65;;
58414;SDS011;44210;42.706;18.344;2023-03-01T16:38:35;11.52;;;5.95;;